Time;durP1;ratioP1;P1;durP2;ratioP2;P2;SDS_P1;SDS_P2;PMS_P1;PMS_P2;Temp;Humidity;BMP_temperature;BMP_pressure;BME280_temperature;BME280_humidity;BME280_pressure;Samples;Min_cycle;Max_cycle;Signal;HPM_P1;HPM_P2
2021/04/02 00:00:26;;;;;;;;;;;15.50;56.50;;;;;;5030712;28;20052;-68
2021/04/02 00:02:52;;;;;;;12.55;1.95;;;15.40;56.90;;;;;;5029770;28;20016;-68
2021/04/02 00:05:18;;;;;;;;;;;15.30;56.10;;;;;;5028836;28;20125;-69
2021/04/02 00:07:45;;;;;;;11.35;2.50;;;15.30;55.70;;;;;;5030066;28;19909;-69
2021/04/02 00:10:14;;;;;;;7.88;2.05;;;15.20;55.50;;;;;;5029851;28;20048;-68
2021/04/02 00:12:39;;;;;;;12.02;2.25;;;15.10;55.50;;;;;;5029448;28;20063;-69
2021/04/02 00:15:13;;;;;;;;;;;15.00;55.90;;;;;;5030219;28;20104;-68
2021/04/02 00:17:39;;;;;;;9.57;2.08;;;14.90;56.30;;;;;;5029376;28;19909;-69
2021/04/02 00:20:06;;;;;;;;;;;14.80;56.70;;;;;;5029863;28;20055;-69
2021/04/02 00:22:31;;;;;;;6.50;2.42;;;14.70;57.90;;;;;;5029280;28;19917;-69
2021/04/02 00:24:57;;;;;;;6.47;2.15;;;14.50;58.70;;;;;;5029531;28;20037;-68
2021/04/02 00:27:22;;;;;;;;;;;14.40;60.00;;;;;;5029563;28;20711;-69
2021/04/02 00:29:48;;;;;;;9.85;3.25;;;14.30;61.40;;;;;;5029361;28;20408;-69
2021/04/02 00:32:14;;;;;;;;;;;14.20;61.80;;;;;;5030074;28;20444;-68
2021/04/02 00:34:39;;;;;;;8.25;3.13;;;14.10;62.50;;;;;;5029014;28;19917;-68
2021/04/02 00:37:05;;;;;;;;;;;14.00;62.60;;;;;;5029602;28;20088;-69
2021/04/02 00:39:31;;;;;;;6.80;2.95;;;14.00;63.30;;;;;;5028724;28;19909;-69
2021/04/02 00:41:56;;;;;;;;;;;13.90;63.30;;;;;;5029814;28;20418;-68
2021/04/02 00:44:22;;;;;;;13.43;2.50;;;13.80;64.60;;;;;;5044513;28;19909;-68
2021/04/02 00:46:47;;;;;;;;;;;13.70;65.30;;;;;;5029578;28;20049;-68
2021/04/02 00:49:13;;;;;;;11.13;2.65;;;13.60;65.50;;;;;;5043881;28;19954;-68
2021/04/02 00:51:38;;;;;;;;;;;13.40;65.50;;;;;;5028959;28;20033;-69
2021/04/02 00:54:05;;;;;;;6.63;2.40;;;13.30;65.90;;;;;;5029041;28;19905;-67
2021/04/02 00:56:31;;;;;;;8.60;2.92;;;13.20;66.30;;;;;;5029032;28;20446;-68
2021/04/02 00:58:57;;;;;;;10.02;3.10;;;13.10;66.90;;;;;;5028677;28;20083;-70
2021/04/02 01:01:22;;;;;;;;;;;13.00;67.10;;;;;;5029161;28;20029;-69
2021/04/02 01:03:48;;;;;;;9.07;2.72;;;12.90;68.10;;;;;;5043378;28;19953;-68
2021/04/02 01:06:18;;;;;;;;;;;12.80;67.90;;;;;;5029327;28;20126;-68
2021/04/02 01:08:44;;;;;;;6.47;2.97;;;12.80;68.30;;;;;;5028661;28;19908;-68
2021/04/02 01:11:11;;;;;;;;;;;12.80;68.70;;;;;;5029030;28;20040;-68
2021/04/02 01:13:41;;;;;;;14.00;2.92;;;12.70;69.00;;;;;;5026698;28;19905;-69
2021/04/02 01:16:19;;;;;;;9.20;3.55;;;12.70;69.30;;;;;;5028698;28;20056;-68
2021/04/02 01:19:19;;;;;;;7.50;2.85;;;12.70;71.00;;;;;;5027479;28;20080;-68
2021/04/02 01:21:57;;;;;;;9.05;2.72;;;12.70;71.60;;;;;;5028531;28;20269;-69
2021/04/02 01:24:23;;;;;;;6.28;2.45;;;12.80;71.50;;;;;;5027855;28;20398;-69
2021/04/02 01:26:56;;;;;;;;;;;12.80;71.40;;;;;;5028868;28;20025;-69
2021/04/02 01:29:24;;;;;;;5.57;2.22;;;12.80;71.70;;;;;;5028255;28;20027;-68
2021/04/02 01:31:54;;;;;;;13.20;5.82;;;12.80;72.10;;;;;;5026985;28;20033;-68
2021/04/02 01:34:26;;;;;;;18.00;8.18;;;12.70;72.80;;;;;;5027737;28;20108;-69
2021/04/02 01:36:54;;;;;;;15.65;7.72;;;12.70;73.90;;;;;;5027942;28;20033;-68
2021/04/02 01:39:20;;;;;;;14.15;6.85;;;12.70;74.20;;;;;;5028117;28;20105;-69
2021/04/02 01:41:50;;;;;;;10.20;3.92;;;12.70;74.50;;;;;;5027571;28;20044;-68
2021/04/02 01:44:18;;;;;;;7.57;3.72;;;12.70;75.10;;;;;;5028145;28;20033;-69
2021/04/02 01:46:44;;;;;;;7.13;4.13;;;12.70;75.60;;;;;;5027786;28;20398;-68
2021/04/02 01:49:11;;;;;;;8.07;4.25;;;12.70;76.00;;;;;;5027495;28;20033;-68
2021/04/02 01:51:39;;;;;;;7.22;3.05;;;12.70;75.90;;;;;;5026914;28;20029;-69
2021/04/02 01:54:05;;;;;;;8.88;2.78;;;12.70;75.90;;;;;;5027576;28;20033;-68
2021/04/02 01:56:33;;;;;;;5.53;2.38;;;12.70;76.20;;;;;;5027925;28;20079;-67
2021/04/02 01:59:01;;;;;;;7.15;2.75;;;12.70;76.30;;;;;;5027582;28;20033;-67
2021/04/02 02:01:35;;;;;;;11.27;2.60;;;12.70;76.20;;;;;;5027507;28;20088;-69
2021/04/02 02:04:01;;;;;;;8.95;2.40;;;12.80;75.80;;;;;;5027279;28;20410;-69
2021/04/02 02:06:28;;;;;;;5.93;2.45;;;12.80;75.40;;;;;;5025898;28;20504;-69
2021/04/02 02:08:55;;;;;;;7.45;2.17;;;12.90;75.10;;;;;;5027556;28;20067;-69
2021/04/02 02:11:22;;;;;;;14.15;3.17;;;12.90;75.00;;;;;;5025666;28;20478;-69
2021/04/02 02:13:54;;;;;;;7.10;2.72;;;12.90;74.90;;;;;;5027071;28;20080;-68
2021/04/02 02:16:22;;;;;;;6.45;3.10;;;13.00;74.60;;;;;;5027531;28;20136;-69
2021/04/02 02:18:53;;;;;;;8.68;2.70;;;12.90;74.60;;;;;;5026880;28;20279;-68
2021/04/02 02:21:20;;;;;;;5.60;2.67;;;12.90;74.60;;;;;;5026854;28;20044;-68
2021/04/02 02:23:47;;;;;;;9.27;3.78;;;12.90;74.60;;;;;;5026767;28;20026;-68
2021/04/02 02:26:13;;;;;;;6.05;2.65;;;12.90;74.70;;;;;;5027328;28;20025;-69
2021/04/02 02:28:39;;;;;;;5.25;2.00;;;12.90;74.80;;;;;;5009399;28;20490;-69
2021/04/02 02:31:06;;;;;;;3.63;2.30;;;12.80;74.80;;;;;;5027293;28;20048;-68
2021/04/02 02:33:33;;;;;;;9.05;2.70;;;12.80;74.50;;;;;;5026185;28;20025;-69
2021/04/02 02:36:00;;;;;;;3.67;2.40;;;12.80;73.70;;;;;;5027033;28;20030;-68
2021/04/02 02:38:26;;;;;;;9.90;2.20;;;12.80;73.30;;;;;;5026202;28;20060;-69
2021/04/02 02:40:52;;;;;;;6.35;2.40;;;12.80;72.90;;;;;;5025956;28;20021;-67
2021/04/02 02:43:18;;;;;;;;;;;12.90;72.90;;;;;;5026586;28;20300;-67
2021/04/02 02:45:44;;;;;;;6.90;2.42;;;12.90;72.80;;;;;;5025934;28;19931;-69
2021/04/02 02:48:10;;;;;;;;;;;12.90;72.70;;;;;;5026088;28;20240;-68
2021/04/02 02:50:38;;;;;;;6.93;2.17;;;12.90;72.70;;;;;;5025471;28;20007;-69
2021/04/02 02:53:07;;;;;;;7.75;2.17;;;12.90;72.50;;;;;;5026248;28;20509;-68
2021/04/02 02:55:35;;;;;;;6.22;2.10;;;12.90;72.40;;;;;;5008897;28;20490;-68
2021/04/02 02:58:02;;;;;;;4.65;1.65;;;12.80;72.50;;;;;;5025805;28;20028;-68
2021/04/02 03:00:32;;;;;;;7.43;2.25;;;12.80;72.40;;;;;;5025940;28;20104;-69
2021/04/02 03:02:59;;;;;;;3.40;1.58;;;12.80;72.50;;;;;;5025390;28;20037;-69
2021/04/02 03:05:28;;;;;;;5.82;1.95;;;12.70;72.70;;;;;;5025995;28;20131;-68
2021/04/02 03:08:00;;;;;;;8.77;2.95;;;12.60;72.90;;;;;;5026087;28;20025;-69
2021/04/02 03:10:27;;;;;;;5.43;2.30;;;12.50;73.10;;;;;;5025505;28;20049;-69
2021/04/02 03:12:54;;;;;;;9.85;2.83;;;12.40;73.20;;;;;;5026450;28;20064;-69
2021/04/02 03:15:21;;;;;;;5.07;2.03;;;12.20;73.50;;;;;;5023622;28;20067;-66
2021/04/02 03:17:58;;;;;;;5.20;2.10;;;12.10;73.90;;;;;;5025396;28;20091;-69
2021/04/02 03:20:25;;;;;;;5.18;2.03;;;12.00;73.90;;;;;;5026226;28;20030;-69
2021/04/02 03:22:53;;;;;;;5.72;2.53;;;11.90;73.90;;;;;;5026210;28;20037;-69
2021/04/02 03:25:21;;;;;;;5.00;2.22;;;11.80;74.30;;;;;;5025689;28;20109;-68
2021/04/02 03:27:49;;;;;;;3.97;2.03;;;11.70;74.50;;;;;;5025122;28;20030;-68
2021/04/02 03:30:17;;;;;;;8.55;3.40;;;11.60;74.60;;;;;;5026362;28;20067;-69
2021/04/02 03:32:47;;;;;;;9.88;3.50;;;11.60;74.80;;;;;;5025921;28;20523;-69
2021/04/02 03:35:13;;;;;;;8.30;3.40;;;11.60;74.80;;;;;;5026345;28;20498;-69
2021/04/02 03:37:41;;;;;;;6.80;3.47;;;11.60;74.80;;;;;;5025732;28;20025;-68
2021/04/02 03:40:11;;;;;;;7.47;3.65;;;11.70;74.70;;;;;;5026386;28;20044;-69
2021/04/02 03:42:39;;;;;;;8.63;2.92;;;11.80;74.60;;;;;;5025760;28;20052;-70
2021/04/02 03:45:09;;;;;;;7.47;2.90;;;11.80;74.50;;;;;;5026244;28;20536;-70
2021/04/02 03:47:35;;;;;;;11.23;3.38;;;11.90;74.50;;;;;;5023990;28;20025;-70
2021/04/02 03:50:05;;;;;;;6.88;3.55;;;11.80;74.50;;;;;;5026206;28;20155;-70
2021/04/02 03:52:40;;;;;;;10.15;3.33;;;11.90;74.00;;;;;;5024305;28;20512;-67
2021/04/02 03:55:07;;;;;;;7.20;3.05;;;11.90;73.80;;;;;;5026122;28;20033;-67
2021/04/02 03:57:34;;;;;;;9.18;3.25;;;11.90;73.70;;;;;;5025955;28;20044;-69
2021/04/02 04:00:15;;;;;;;17.63;4.15;;;11.90;74.10;;;;;;5024294;28;20522;-67
2021/04/02 04:02:42;;;;;;;6.22;3.08;;;11.90;74.00;;;;;;5025300;28;20037;-68
2021/04/02 04:05:10;;;;;;;11.85;3.47;;;11.80;74.10;;;;;;5026573;28;20025;-69
2021/04/02 04:07:36;;;;;;;9.70;3.25;;;11.80;74.10;;;;;;5025760;28;20112;-69
2021/04/02 04:10:03;;;;;;;9.38;3.20;;;11.80;74.00;;;;;;5025955;28;20061;-68
2021/04/02 04:12:28;;;;;;;8.65;3.95;;;11.80;74.20;;;;;;5025443;28;20071;-67
2021/04/02 04:14:55;;;;;;;;;;;11.80;74.20;;;;;;5027522;28;20104;-68
2021/04/02 04:17:22;;;;;;;8.07;3.45;;;11.90;74.20;;;;;;5028660;28;19940;-67
2021/04/02 04:19:49;;;;;;;7.53;3.50;;;11.80;73.80;;;;;;5029378;28;20049;-68
2021/04/02 04:22:17;;;;;;;8.88;3.83;;;11.80;73.80;;;;;;5029031;28;20619;-67
2021/04/02 04:24:45;;;;;;;12.70;3.47;;;11.80;74.00;;;;;;5029062;28;20018;-68
2021/04/02 04:27:13;;;;;;;10.90;4.20;;;11.80;74.10;;;;;;5029412;28;20033;-68
2021/04/02 04:29:45;;;;;;;14.40;6.00;;;11.80;73.90;;;;;;5028946;28;20021;-68
2021/04/02 04:32:16;;;;;;;8.45;4.95;;;11.90;73.90;;;;;;5028717;28;20061;-68
2021/04/02 04:34:42;;;;;;;15.55;5.10;;;11.90;73.80;;;;;;5029195;28;20517;-68
2021/04/02 04:37:10;;;;;;;10.40;4.97;;;11.90;73.70;;;;;;5029271;28;20140;-68
2021/04/02 04:39:36;;;;;;;14.48;4.55;;;12.00;73.70;;;;;;5028722;28;20383;-67
2021/04/02 04:42:03;;;;;;;12.00;4.25;;;12.00;73.60;;;;;;5029054;28;20628;-67
2021/04/02 04:44:29;;;;;;;8.48;4.57;;;12.00;73.40;;;;;;5028719;28;20032;-67
2021/04/02 04:46:55;;;;;;;9.70;3.53;;;12.10;73.10;;;;;;5028813;28;20037;-68
2021/04/02 04:49:21;;;;;;;;;;;12.10;72.80;;;;;;5028584;28;20513;-67
2021/04/02 04:51:48;;;;;;;10.43;4.57;;;12.20;72.50;;;;;;5028731;28;20377;-68
2021/04/02 04:54:16;;;;;;;9.13;3.83;;;12.30;72.10;;;;;;5028946;28;20121;-68
2021/04/02 04:56:42;;;;;;;12.10;4.28;;;12.50;71.60;;;;;;5028387;28;20108;-68
2021/04/02 04:59:10;;;;;;;6.97;4.63;;;12.70;70.00;;;;;;5028897;28;20091;-67
2021/04/02 05:01:43;;;;;;;7.47;3.60;;;12.90;68.90;;;;;;5028223;28;20026;-68
2021/04/02 05:04:10;;;;;;;7.93;3.88;;;13.20;68.40;;;;;;5027290;28;20036;-68
2021/04/02 05:06:39;;;;;;;16.23;9.60;;;13.50;67.80;;;;;;5028644;28;20061;-68
2021/04/02 05:09:05;;;;;;;18.85;7.10;;;13.80;67.20;;;;;;5026825;28;20041;-68
2021/04/02 05:11:34;;;;;;;15.65;5.85;;;13.90;66.30;;;;;;5028433;28;20064;-67
2021/04/02 05:14:01;;;;;;;14.40;5.28;;;13.90;66.00;;;;;;5026729;28;20029;-68
2021/04/02 05:16:28;;;;;;;9.02;4.15;;;13.80;66.50;;;;;;5027835;28;20033;-68
2021/04/02 05:18:56;;;;;;;9.88;3.80;;;13.80;66.80;;;;;;5028487;28;20045;-67
2021/04/02 05:21:22;;;;;;;8.05;3.72;;;13.80;66.60;;;;;;5028143;28;20044;-68
2021/04/02 05:23:48;;;;;;;;;;;13.90;66.30;;;;;;5026981;28;20022;-68
2021/04/02 05:26:14;;;;;;;18.05;3.95;;;14.10;65.30;;;;;;5026914;28;20432;-67
2021/04/02 05:28:41;;;;;;;11.13;4.20;;;14.50;64.80;;;;;;5028116;28;20053;-68
2021/04/02 05:31:07;;;;;;;9.70;4.13;;;15.00;63.10;;;;;;5027783;28;20112;-68
2021/04/02 05:33:35;;;;;;;11.25;4.93;;;15.60;60.60;;;;;;5027475;28;20061;-69
2021/04/02 05:36:00;;;;;;;14.65;5.43;;;16.10;59.30;;;;;;5026564;28;20033;-68
2021/04/02 05:38:26;;;;;;;12.10;4.55;;;16.60;56.70;;;;;;5027864;28;20079;-68
2021/04/02 05:40:52;;;;;;;13.77;4.88;;;17.00;55.30;;;;;;5027683;28;20044;-69
2021/04/02 05:43:17;;;;;;;16.50;4.22;;;17.20;53.60;;;;;;5027713;28;20131;-68
2021/04/02 05:45:45;;;;;;;7.55;4.45;;;17.60;52.90;;;;;;5025945;28;20029;-68
2021/04/02 05:48:14;;;;;;;12.38;5.10;;;17.90;51.50;;;;;;5028292;28;20033;-68
2021/04/02 05:50:40;;;;;;;20.52;10.68;;;18.00;50.00;;;;;;5028767;28;20044;-68
2021/04/02 05:53:26;;;;;;;15.93;8.48;;;18.20;49.80;;;;;;5029171;28;20029;-68
2021/04/02 05:55:54;;;;;;;13.48;6.72;;;18.60;48.10;;;;;;5029772;28;20021;-68
2021/04/02 05:58:20;;;;;;;11.15;4.75;;;18.80;48.20;;;;;;5029408;28;20037;-67
2021/04/02 06:00:46;;;;;;;22.10;5.70;;;19.00;47.20;;;;;;5025811;28;20036;-68
2021/04/02 06:03:16;;;;;;;15.18;5.78;;;19.10;43.40;;;;;;5027393;28;20449;-67
2021/04/02 06:05:42;;;;;;;17.35;6.55;;;19.20;42.50;;;;;;5026847;28;20496;-68
2021/04/02 06:08:10;;;;;;;17.80;5.97;;;19.10;40.90;;;;;;5027998;28;20108;-67
2021/04/02 06:10:35;;;;;;;15.40;6.65;;;19.30;40.50;;;;;;5027131;28;20047;-69
2021/04/02 06:13:01;;;;;;;15.10;5.78;;;19.40;39.90;;;;;;5026771;28;20025;-68
2021/04/02 06:15:31;;;;;;;17.05;6.80;;;19.60;39.90;;;;;;5026632;28;20528;-67
2021/04/02 06:18:00;;;;;;;19.20;6.25;;;19.70;39.00;;;;;;5026670;28;20155;-68
2021/04/02 06:20:32;;;;;;;10.07;5.10;;;20.10;39.00;;;;;;5026707;28;20029;-68
2021/04/02 06:23:21;;;;;;;12.85;5.97;;;20.10;38.50;;;;;;5027212;28;20048;-68
2021/04/02 06:25:58;;;;;;;14.05;5.88;;;20.50;37.30;;;;;;5027121;28;20049;-69
2021/04/02 06:28:24;;;;;;;14.60;6.32;;;21.00;36.40;;;;;;5027116;28;20025;-68
2021/04/02 06:30:59;;;;;;;15.98;5.68;;;21.40;35.60;;;;;;5026208;28;20025;-68
2021/04/02 06:33:38;;;;;;;14.23;6.45;;;22.00;34.90;;;;;;5026543;28;20026;-68
2021/04/02 06:36:15;;;;;;;10.90;5.30;;;22.50;34.10;;;;;;5026904;28;20021;-68
2021/04/02 06:38:46;;;;;;;16.42;6.68;;;22.60;33.20;;;;;;5026347;28;20128;-67
2021/04/02 06:41:13;;;;;;;13.82;5.43;;;22.90;33.20;;;;;;5026109;28;20021;-68
2021/04/02 06:43:46;;;;;;;15.63;6.25;;;23.20;32.90;;;;;;5026495;28;20418;-67
2021/04/02 06:46:24;;;;;;;17.42;7.22;;;23.60;31.40;;;;;;5026166;28;20084;-68
2021/04/02 06:48:50;;;;;;;13.98;6.95;;;23.20;31.50;;;;;;5026434;28;20148;-67
2021/04/02 06:51:18;;;;;;;18.25;6.53;;;23.50;31.00;;;;;;5024778;28;20057;-67
2021/04/02 06:53:46;;;;;;;16.25;7.20;;;23.70;30.20;;;;;;5024602;28;20498;-69
2021/04/02 06:56:14;;;;;;;16.42;6.88;;;23.60;30.80;;;;;;5025527;28;20060;-67
2021/04/02 06:58:41;;;;;;;18.65;7.70;;;23.80;30.70;;;;;;5025875;28;20116;-67
2021/04/02 07:01:08;;;;;;;13.20;6.45;;;24.20;30.00;;;;;;5024274;28;20033;-67
2021/04/02 07:03:35;;;;;;;17.83;6.97;;;23.90;29.90;;;;;;5025083;28;20025;-66
2021/04/02 07:06:03;;;;;;;10.77;5.85;;;24.40;30.00;;;;;;5024768;28;20031;-67
2021/04/02 07:08:30;;;;;;;18.00;6.45;;;24.60;29.40;;;;;;5024596;28;20044;-66
2021/04/02 07:10:57;;;;;;;13.82;6.90;;;25.00;29.10;;;;;;5025271;28;20544;-67
2021/04/02 07:13:28;;;;;;;14.77;6.65;;;25.20;28.40;;;;;;5024014;28;20083;-67
2021/04/02 07:15:56;;;;;;;18.70;6.10;;;25.20;28.10;;;;;;5022360;28;20494;-67
2021/04/02 07:18:22;;;;;;;15.93;6.28;;;25.10;28.00;;;;;;5024418;28;20100;-67
2021/04/02 07:20:49;;;;;;;15.57;6.25;;;25.60;28.20;;;;;;5025278;28;20059;-67
2021/04/02 07:23:16;;;;;;;13.40;5.68;;;25.40;27.70;;;;;;5026147;28;20051;-66
2021/04/02 07:25:42;;;;;;;14.77;6.05;;;25.90;27.30;;;;;;5025779;28;20021;-67
2021/04/02 07:28:08;;;;;;;13.07;6.35;;;25.90;27.40;;;;;;5025059;28;20026;-67
2021/04/02 07:30:35;;;;;;;18.35;6.95;;;25.90;26.70;;;;;;5024485;28;20137;-68
2021/04/02 07:33:07;;;;;;;14.77;6.55;;;26.30;26.20;;;;;;5023331;28;20108;-68
2021/04/02 07:35:36;;;;;;;11.65;5.60;;;26.30;26.50;;;;;;5024651;28;20027;-67
2021/04/02 07:38:05;;;;;;;11.93;5.43;;;27.10;25.90;;;;;;5024436;28;20026;-67
2021/04/02 07:40:33;;;;;;;13.07;5.82;;;27.30;25.80;;;;;;5024649;28;20053;-67
2021/04/02 07:43:05;;;;;;;13.75;6.47;;;27.50;24.70;;;;;;5022585;28;20045;-66
2021/04/02 07:45:35;;;;;;;14.57;5.85;;;27.20;25.00;;;;;;5024070;28;20030;-67
2021/04/02 07:48:16;;;;;;;28.95;6.95;;;27.20;25.40;;;;;;5022803;28;20478;-69
2021/04/02 07:51:01;;;;;;;16.08;9.15;;;27.30;25.20;;;;;;5025005;28;20026;-67
2021/04/02 07:53:26;;;;;;;10.93;6.00;;;27.40;25.00;;;;;;5027219;28;20048;-68
2021/04/02 07:56:06;;;;;;;13.35;8.32;;;27.10;24.90;;;;;;5028582;28;20033;-67
2021/04/02 07:58:33;;;;;;;14.38;6.07;;;26.70;24.70;;;;;;5027294;28;20505;-67
2021/04/02 08:01:00;;;;;;;10.23;5.28;;;27.00;25.00;;;;;;5027532;28;20044;-67
2021/04/02 08:03:30;;;;;;;11.45;6.47;;;27.90;24.80;;;;;;5028036;28;20033;-67
2021/04/02 08:06:00;;;;;;;16.63;7.18;;;28.50;24.00;;;;;;5028140;28;20413;-68
2021/04/02 08:08:27;;;;;;;18.83;5.97;;;28.60;23.90;;;;;;5026537;28;20039;-67
2021/04/02 08:11:07;;;;;;;17.63;6.00;;;28.40;24.10;;;;;;5027874;28;20025;-68
2021/04/02 08:14:00;;;;;;;12.82;5.47;;;29.20;23.90;;;;;;5027818;28;20022;-67
2021/04/02 08:16:27;;;;;;;11.77;6.05;;;29.70;23.50;;;;;;5025817;28;20254;-67
2021/04/02 08:19:21;;;;;;;15.90;5.50;;;30.10;22.60;;;;;;5027736;28;20081;-66
2021/04/02 08:21:56;;;;;;;14.35;6.50;;;30.20;22.30;;;;;;5026865;28;20124;-68
2021/04/02 08:24:25;;;;;;;10.57;5.43;;;29.70;22.20;;;;;;5029288;28;20037;-67
2021/04/02 08:26:51;;;;;;;20.90;6.80;;;29.80;22.30;;;;;;5029162;28;20068;-68
2021/04/02 08:29:20;;;;;;;16.45;8.63;;;29.70;22.90;;;;;;5028299;28;20033;-68
2021/04/02 08:31:51;;;;;;;18.00;8.43;;;29.60;21.50;;;;;;5029269;28;20060;-67
2021/04/02 08:34:19;;;;;;;14.95;7.60;;;29.60;21.90;;;;;;5016951;28;20531;-67
2021/04/02 08:36:47;;;;;;;13.30;7.45;;;29.60;22.70;;;;;;5024989;28;20113;-69
2021/04/02 08:39:14;;;;;;;11.35;6.93;;;29.80;21.40;;;;;;5009809;28;20218;-67
2021/04/02 08:41:40;;;;;;;15.23;11.82;;;29.80;22.00;;;;;;5027377;28;20049;-68
2021/04/02 08:44:06;;;;;;;16.33;7.82;;;29.80;21.60;;;;;;5027095;28;20261;-67
2021/04/02 08:46:41;;;;;;;23.02;17.15;;;29.60;21.50;;;;;;5027545;28;20052;-67
2021/04/02 08:49:09;;;;;;;16.30;10.50;;;29.40;21.90;;;;;;5026996;28;20033;-67
2021/04/02 08:51:35;;;;;;;17.83;8.80;;;29.20;22.30;;;;;;5027381;28;20034;-67
2021/04/02 08:54:02;;;;;;;11.45;7.70;;;28.70;21.70;;;;;;5026892;28;20039;-67
2021/04/02 08:56:31;;;;;;;11.88;7.72;;;28.30;22.30;;;;;;5027397;28;20022;-67
2021/04/02 08:59:02;;;;;;;14.85;9.10;;;27.20;23.10;;;;;;5026666;28;20100;-68
2021/04/02 09:01:28;;;;;;;21.92;7.18;;;26.30;24.50;;;;;;5027084;28;20034;-67
2021/04/02 09:03:55;;;;;;;15.40;7.20;;;25.60;25.00;;;;;;5027526;28;20044;-68
2021/04/02 09:06:21;;;;;;;11.88;6.45;;;25.90;25.20;;;;;;5027874;28;20053;-68
2021/04/02 09:08:47;;;;;;;14.95;7.25;;;26.50;25.20;;;;;;5028236;28;20381;-67
2021/04/02 09:11:13;;;;;;;10.38;6.60;;;26.80;24.80;;;;;;5030391;28;20662;-68
2021/04/02 09:13:41;;;;;;;9.90;7.32;;;27.10;24.70;;;;;;5030641;28;20037;-67
2021/04/02 09:16:13;;;;;;;10.60;6.82;;;26.90;23.40;;;;;;5030300;28;20033;-68
2021/04/02 09:18:54;;;;;;;12.88;7.53;;;26.60;23.50;;;;;;5027743;28;20049;-67
2021/04/02 09:21:22;;;;;;;16.38;8.10;;;26.10;23.00;;;;;;5028022;28;20449;-67
2021/04/02 09:23:52;;;;;;;10.70;5.53;;;25.30;24.10;;;;;;5026297;28;20029;-68
2021/04/02 09:26:19;;;;;;;11.30;6.78;;;25.70;25.20;;;;;;5028062;28;20116;-66
2021/04/02 09:28:46;;;;;;;17.10;7.20;;;26.40;23.80;;;;;;5026771;28;20029;-68
2021/04/02 09:31:24;;;;;;;13.55;6.20;;;27.00;23.10;;;;;;5026830;28;20048;-68
2021/04/02 09:33:56;;;;;;;12.65;7.00;;;27.50;21.80;;;;;;5025454;28;20087;-68
2021/04/02 09:36:24;;;;;;;13.75;7.53;;;27.40;21.30;;;;;;5024288;28;20253;-68
2021/04/02 09:38:50;;;;;;;13.15;7.03;;;27.20;21.10;;;;;;5026833;28;20061;-67
2021/04/02 09:41:22;;;;;;;11.38;7.03;;;26.40;22.00;;;;;;5026256;28;20063;-68
2021/04/02 09:43:52;;;;;;;11.77;6.13;;;25.70;22.80;;;;;;5026181;28;20442;-67
2021/04/02 09:46:32;;;;;;;13.27;6.63;;;25.30;22.70;;;;;;5022882;28;20062;-66
2021/04/02 09:49:24;;;;;;;23.55;6.93;;;24.90;23.60;;;;;;5027827;28;20014;-67
2021/04/02 09:51:52;;;;;;;14.10;6.25;;;24.20;24.90;;;;;;5025895;28;20795;-67
2021/04/02 09:54:19;;;;;;;13.38;6.53;;;23.80;25.60;;;;;;5026538;28;20068;-67
2021/04/02 09:56:47;;;;;;;11.05;4.97;;;23.30;26.00;;;;;;5026264;28;20036;-67
2021/04/02 09:59:14;;;;;;;22.88;7.40;;;22.80;27.00;;;;;;5027149;28;20478;-66
2021/04/02 10:01:41;;;;;;;8.10;4.97;;;22.40;27.30;;;;;;5025812;28;20083;-67
2021/04/02 10:04:08;;;;;;;13.18;5.90;;;22.00;28.20;;;;;;5027140;28;20124;-68
2021/04/02 10:06:34;;;;;;;10.10;5.45;;;21.70;28.90;;;;;;5027325;28;20026;-67
2021/04/02 10:09:00;;;;;;;12.60;5.78;;;21.70;29.60;;;;;;5027523;28;20030;-67
2021/04/02 10:11:27;;;;;;;13.57;6.20;;;22.00;29.80;;;;;;5026876;28;20053;-67
2021/04/02 10:13:53;;;;;;;7.78;5.10;;;22.20;29.00;;;;;;5026018;28;20047;-68
2021/04/02 10:16:19;;;;;;;15.30;6.97;;;22.20;28.30;;;;;;5027280;28;20100;-67
2021/04/02 10:18:48;;;;;;;9.48;6.43;;;22.40;28.80;;;;;;5027165;28;20104;-67
2021/04/02 10:21:14;;;;;;;8.25;5.57;;;22.40;28.30;;;;;;5027194;28;20043;-67
2021/04/02 10:23:40;;;;;;;11.27;6.22;;;22.30;28.50;;;;;;5025218;28;20341;-68
2021/04/02 10:26:06;;;;;;;12.85;6.63;;;22.20;28.80;;;;;;5027202;28;20052;-68
2021/04/02 10:28:32;;;;;;;10.77;6.03;;;21.80;28.90;;;;;;5026083;28;20041;-66
2021/04/02 10:30:59;;;;;;;13.07;6.50;;;21.50;29.10;;;;;;5027026;28;20297;-68
2021/04/02 10:33:24;;;;;;;22.52;7.95;;;21.20;29.50;;;;;;5025471;28;20029;-69
2021/04/02 10:35:50;;;;;;;14.35;5.70;;;21.00;29.90;;;;;;5008736;28;20029;-67
2021/04/02 10:38:16;;;;;;;16.55;7.22;;;20.70;30.60;;;;;;5026837;28;20300;-68
2021/04/02 10:40:42;;;;;;;13.02;6.70;;;20.50;31.90;;;;;;5026384;28;20675;-68
2021/04/02 10:43:08;;;;;;;11.43;5.97;;;20.30;32.30;;;;;;5026244;28;20120;-68
2021/04/02 10:45:34;;;;;;;11.20;6.03;;;20.30;32.80;;;;;;5026586;28;20017;-67
2021/04/02 10:48:02;;;;;;;11.10;6.13;;;20.30;33.10;;;;;;5026203;28;20472;-68
2021/04/02 10:50:28;;;;;;;10.65;6.78;;;20.40;33.40;;;;;;5026578;28;20025;-68
2021/04/02 10:52:55;;;;;;;11.77;6.70;;;20.60;33.50;;;;;;5026742;28;20100;-65
2021/04/02 10:55:21;;;;;;;10.02;5.65;;;20.90;32.60;;;;;;5026094;28;20047;-67
2021/04/02 10:57:47;;;;;;;12.05;5.70;;;21.00;32.30;;;;;;5026323;28;20116;-65
2021/04/02 11:00:15;;;;;;;9.27;6.18;;;21.20;31.50;;;;;;5026223;28;20136;-66
2021/04/02 11:02:41;;;;;;;11.38;6.68;;;21.40;31.60;;;;;;5026676;28;20056;-66
2021/04/02 11:05:08;;;;;;;11.70;7.07;;;21.40;31.10;;;;;;5024796;28;20048;-67
2021/04/02 11:07:34;;;;;;;14.25;6.38;;;21.30;30.80;;;;;;5026359;28;20030;-66
2021/04/02 11:10:00;;;;;;;9.73;6.03;;;21.30;30.80;;;;;;5026457;28;20022;-67
2021/04/02 11:12:28;;;;;;;11.82;5.43;;;21.20;30.60;;;;;;5025349;28;20108;-68
2021/04/02 11:14:58;;;;;;;12.90;5.70;;;21.10;30.40;;;;;;5026353;28;20620;-67
2021/04/02 11:17:24;;;;;;;10.32;6.30;;;21.00;30.50;;;;;;5025440;28;20030;-67
2021/04/02 11:19:52;;;;;;;7.20;4.65;;;20.80;30.40;;;;;;5025008;28;20041;-68
2021/04/02 11:22:18;;;;;;;10.73;4.88;;;20.70;30.90;;;;;;5024233;28;20041;-69
2021/04/02 11:24:43;;;;;;;19.23;7.90;;;20.60;31.30;;;;;;5030737;28;20055;-68
2021/04/02 11:27:10;;;;;;;11.90;7.10;;;20.50;32.20;;;;;;5031868;28;20032;-67
2021/04/02 11:29:39;;;;;;;14.90;7.75;;;20.50;33.20;;;;;;5032423;28;20109;-67
2021/04/02 11:32:09;;;;;;;13.27;8.13;;;20.10;39.00;;;;;;5032069;28;20025;-67
2021/04/02 11:34:35;;;;;;;10.45;6.15;;;19.60;44.50;;;;;;5032657;28;20033;-67
2021/04/02 11:37:01;;;;;;;12.13;5.85;;;19.00;46.30;;;;;;5032247;28;20030;-67
2021/04/02 11:39:27;;;;;;;18.15;5.47;;;18.50;48.30;;;;;;5032420;28;20036;-67
2021/04/02 11:41:53;;;;;;;10.90;5.70;;;17.90;49.90;;;;;;5031521;28;20122;-68
2021/04/02 11:44:20;;;;;;;11.73;5.65;;;17.40;51.70;;;;;;5032627;28;20030;-67
2021/04/02 11:46:47;;;;;;;10.50;5.50;;;17.20;52.30;;;;;;5031673;28;20148;-68
2021/04/02 11:49:13;;;;;;;12.30;5.82;;;17.50;52.90;;;;;;5032354;28;20025;-68
2021/04/02 11:51:38;;;;;;;11.32;5.72;;;17.70;51.90;;;;;;5032431;28;20112;-67
2021/04/02 11:54:05;;;;;;;11.98;5.53;;;17.50;52.40;;;;;;5032208;28;20021;-67
2021/04/02 11:56:30;;;;;;;12.15;6.57;;;17.40;53.00;;;;;;5032394;28;20053;-69
2021/04/02 11:58:56;;;;;;;15.00;5.40;;;17.00;54.20;;;;;;5013988;28;20517;-68
2021/04/02 12:01:22;;;;;;;17.63;6.63;;;17.10;54.00;;;;;;5032111;28;20049;-68
2021/04/02 12:03:48;;;;;;;10.88;5.45;;;17.00;54.10;;;;;;5032011;28;20029;-68
2021/04/02 12:06:13;;;;;;;;;;;16.70;55.30;;;;;;5032869;28;20023;-68
2021/04/02 12:08:39;;;;;;;14.18;6.22;;;16.70;55.20;;;;;;5031964;28;19992;-68
2021/04/02 12:11:04;;;;;;;;;;;16.80;55.10;;;;;;5032751;28;20052;-68
2021/04/02 12:13:30;;;;;;;13.20;6.35;;;16.70;55.70;;;;;;5031806;28;19909;-68
2021/04/02 12:15:56;;;;;;;;;;;16.50;56.70;;;;;;5032359;28;20029;-67
2021/04/02 12:18:21;;;;;;;16.35;6.60;;;16.60;56.80;;;;;;5032249;28;20357;-68
2021/04/02 12:20:48;;;;;;;11.43;6.47;;;16.80;56.50;;;;;;5032409;28;20095;-68
2021/04/02 12:23:13;;;;;;;13.25;6.95;;;16.70;56.60;;;;;;5032263;28;20522;-68
2021/04/02 12:25:39;;;;;;;;;;;16.70;56.70;;;;;;5032566;28;20029;-68
2021/04/02 12:28:05;;;;;;;12.60;6.35;;;16.90;55.90;;;;;;5032160;28;19905;-68
2021/04/02 12:30:31;;;;;;;10.85;6.55;;;17.00;56.40;;;;;;5031917;28;20047;-68
2021/04/02 12:32:56;;;;;;;16.45;7.70;;;17.00;56.10;;;;;;5032340;28;20071;-68
2021/04/02 12:35:22;;;;;;;16.95;6.55;;;17.10;56.20;;;;;;5029974;28;20049;-70
2021/04/02 12:37:47;;;;;;;;;;;17.00;56.50;;;;;;5029556;28;20029;-68
2021/04/02 12:40:21;;;;;;;14.50;7.07;;;16.80;57.00;;;;;;5029064;28;19905;-68
2021/04/02 12:42:47;;;;;;;13.88;7.05;;;16.70;57.40;;;;;;5028495;28;20029;-68
2021/04/02 12:45:13;;;;;;;;;;;16.70;57.70;;;;;;5028857;28;20044;-67
2021/04/02 12:47:40;;;;;;;19.60;7.88;;;16.60;58.70;;;;;;5023034;28;19909;-67
2021/04/02 12:50:11;;;;;;;15.85;6.82;;;16.50;58.80;;;;;;5028193;28;20025;-67
2021/04/02 12:52:37;;;;;;;19.50;7.93;;;16.40;59.20;;;;;;5026895;28;20397;-67